TimeEDT,TemperatureF,Dew PointF,Humidity,Sea Level PressureIn,VisibilityMPH,Wind Direction,Wind SpeedMPH,Gust SpeedMPH,PrecipitationIn,Events,Conditions,WindDirDegrees,DateUTC
12:15 AM,33.6,27.1,77,30.17,10.0,West,9.2,-,N/A,,Overcast,270,2013-03-27 04:15:00
12:35 AM,33.1,27.1,79,30.17,10.0,West,6.9,-,N/A,,Overcast,280,2013-03-27 04:35:00
12:55 AM,33.1,26.8,78,30.18,10.0,West,8.1,16.1,N/A,,Overcast,270,2013-03-27 04:55:00
1:15 AM,33.1,27.0,78,30.18,10.0,West,6.9,-,N/A,,Overcast,270,2013-03-27 05:15:00
1:35 AM,32.9,27.1,79,30.17,10.0,West,8.1,-,N/A,,Overcast,270,2013-03-27 05:35:00
1:55 AM,32.9,27.5,81,30.17,10.0,West,6.9,-,N/A,,Overcast,270,2013-03-27 05:55:00
2:15 AM,32.7,27.3,81,30.17,10.0,West,4.6,-,N/A,,Overcast,270,2013-03-27 06:15:00
2:35 AM,32.5,27.5,82,30.17,10.0,West,9.2,-,N/A,,Overcast,270,2013-03-27 06:35:00
2:55 AM,32.5,27.9,83,30.17,10.0,West,8.1,16.1,N/A,,Overcast,280,2013-03-27 06:55:00
3:15 AM,32.5,27.9,83,30.17,10.0,West,6.9,-,N/A,,Overcast,260,2013-03-27 07:15:00
3:35 AM,32.4,27.9,83,30.16,10.0,West,8.1,-,N/A,,Overcast,270,2013-03-27 07:35:00
3:55 AM,32.4,27.9,83,30.17,10.0,West,8.1,-,N/A,,Overcast,260,2013-03-27 07:55:00
4:15 AM,32.4,28.0,84,30.16,10.0,West,8.1,-,N/A,,Overcast,260,2013-03-27 08:15:00
4:35 AM,32.4,28.2,85,30.16,10.0,West,6.9,-,N/A,,Overcast,260,2013-03-27 08:35:00
4:55 AM,32.4,28.2,85,30.16,10.0,West,8.1,-,N/A,,Overcast,270,2013-03-27 08:55:00
5:15 AM,32.5,28.2,84,30.16,10.0,West,9.2,-,N/A,,Overcast,270,2013-03-27 09:15:00
5:35 AM,32.9,28.0,82,30.17,10.0,West,9.2,17.3,N/A,,Overcast,280,2013-03-27 09:35:00
5:55 AM,32.9,28.4,84,30.17,10.0,West,11.5,17.3,N/A,,Overcast,270,2013-03-27 09:55:00
6:15 AM,32.5,28.4,85,30.18,10.0,West,10.4,-,N/A,,Overcast,280,2013-03-27 10:15:00
6:35 AM,32.9,28.4,84,30.18,10.0,WNW,9.2,-,N/A,,Overcast,290,2013-03-27 10:35:00
6:55 AM,32.9,28.8,85,30.19,10.0,West,9.2,-,N/A,,Overcast,280,2013-03-27 10:55:00
7:15 AM,32.9,28.9,85,30.19,10.0,WNW,10.4,-,N/A,,Overcast,290,2013-03-27 11:15:00
7:47 AM,33.8,28.4,81,30.20,10.0,WNW,8.1,-,N/A,,Overcast,290,2013-03-27 11:47:00
8:47 AM,33.8,28.4,81,30.21,10.0,West,8.1,-,N/A,,Overcast,280,2013-03-27 12:47:00
9:50 AM,35.6,28.4,75,30.23,10.0,West,11.5,18.4,N/A,,Overcast,280,2013-03-27 13:50:00
10:50 AM,37.4,30.2,75,30.23,10.0,WNW,11.5,17.3,N/A,,Scattered Clouds,290,2013-03-27 14:50:00
11:50 AM,39.2,26.6,61,30.25,10.0,WNW,15.0,-,N/A,,Mostly Cloudy,290,2013-03-27 15:50:00
12:50 PM,41.0,28.4,61,30.24,10.0,WNW,12.7,-,N/A,,Mostly Cloudy,290,2013-03-27 16:50:00
1:50 PM,41.0,26.6,57,30.24,10.0,WNW,12.7,-,N/A,,Mostly Cloudy,300,2013-03-27 17:50:00
2:50 PM,42.8,26.6,53,30.23,10.0,West,15.0,20.7,N/A,,Overcast,280,2013-03-27 18:50:00
3:50 PM,41.0,24.8,53,30.22,10.0,WNW,13.8,20.7,N/A,,Overcast,290,2013-03-27 19:50:00
4:52 PM,41.0,24.8,53,30.22,10.0,WNW,15.0,21.9,N/A,,Overcast,300,2013-03-27 20:52:00
5:50 PM,41.0,21.2,45,30.23,10.0,West,12.7,19.6,N/A,,Mostly Cloudy,270,2013-03-27 21:50:00
6:50 PM,39.2,24.8,56,30.23,10.0,WNW,12.7,19.6,N/A,,Mostly Cloudy,300,2013-03-27 22:50:00
7:35 PM,38.7,25.0,58,30.24,10.0,WNW,10.4,-,N/A,,Overcast,300,2013-03-27 23:35:00
7:55 PM,38.3,25.0,59,30.24,10.0,WNW,8.1,-,N/A,,Overcast,300,2013-03-27 23:55:00
8:15 PM,38.3,25.5,60,30.24,10.0,WNW,10.4,-,N/A,,Overcast,290,2013-03-28 00:15:00
8:35 PM,38.3,25.0,59,30.24,10.0,West,10.4,17.3,N/A,,Overcast,280,2013-03-28 00:35:00
8:55 PM,37.8,25.2,60,30.25,10.0,West,9.2,-,N/A,,Overcast,280,2013-03-28 00:55:00
9:15 PM,37.8,24.8,60,30.25,10.0,WNW,10.4,-,N/A,,Overcast,290,2013-03-28 01:15:00
9:35 PM,37.6,25.0,60,30.25,10.0,West,10.4,-,N/A,,Overcast,280,2013-03-28 01:35:00
9:55 PM,37.4,25.5,62,30.26,10.0,West,6.9,-,N/A,,Overcast,270,2013-03-28 01:55:00
10:15 PM,37.0,26.1,65,30.26,10.0,West,6.9,-,N/A,,Overcast,280,2013-03-28 02:15:00
10:35 PM,36.9,25.7,64,30.26,10.0,West,9.2,-,N/A,,Overcast,270,2013-03-28 02:35:00
10:55 PM,36.7,26.1,65,30.26,10.0,West,9.2,-,N/A,,Overcast,270,2013-03-28 02:55:00
11:15 PM,36.5,25.5,64,30.26,10.0,West,8.1,-,N/A,,Overcast,270,2013-03-28 03:15:00
11:35 PM,35.8,24.8,64,30.26,10.0,West,8.1,-,N/A,,Mostly Cloudy,270,2013-03-28 03:35:00
11:55 PM,34.7,25.0,68,30.25,10.0,West,6.9,-,N/A,,Scattered Clouds,270,2013-03-28 03:55:00